Time;durP1;ratioP1;P1;durP2;ratioP2;P2;SDS_P1;SDS_P2;PMS_P1;PMS_P2;Temp;Humidity;BMP_temperature;BMP_pressure;BME280_temperature;BME280_humidity;BME280_pressure;Samples;Min_cycle;Max_cycle;Signal;HPM_P1;HPM_P2
2021/08/07 00:01:06;;;;;;;6.47;3.45;;;13.80;99.90;;;;;;5072189;28;20025;-72
2021/08/07 00:03:32;;;;;;;8.35;3.33;;;13.80;99.90;;;;;;5072324;28;20016;-72
2021/08/07 00:05:57;;;;;;;8.40;3.40;;;13.80;99.90;;;;;;5072118;28;20040;-72
2021/08/07 00:08:23;;;;;;;10.15;3.47;;;13.80;99.90;;;;;;5072427;28;20465;-74
2021/08/07 00:10:49;;;;;;;6.20;3.25;;;13.80;99.90;;;;;;5072206;28;20028;-74
2021/08/07 00:13:14;;;;;;;5.60;3.00;;;13.80;99.90;;;;;;5072388;28;20027;-74
2021/08/07 00:15:40;;;;;;;5.35;2.83;;;13.80;99.90;;;;;;5072193;28;20051;-74
2021/08/07 00:18:05;;;;;;;7.57;3.17;;;13.80;99.90;;;;;;5072297;28;20029;-74
2021/08/07 00:20:31;;;;;;;5.22;3.00;;;13.80;99.90;;;;;;5072269;28;20334;-74
2021/08/07 00:22:57;;;;;;;8.75;2.85;;;13.80;99.90;;;;;;5072243;28;20071;-74
2021/08/07 00:25:22;;;;;;;4.88;3.13;;;13.80;99.90;;;;;;5072090;28;20021;-74
2021/08/07 00:27:48;;;;;;;7.88;3.20;;;13.80;99.90;;;;;;5072158;28;20051;-74
2021/08/07 00:30:14;;;;;;;5.68;2.88;;;13.70;99.90;;;;;;5072287;28;20024;-73
2021/08/07 00:32:40;;;;;;;4.80;3.40;;;13.70;99.90;;;;;;5071911;28;20043;-74
2021/08/07 00:35:07;;;;;;;7.72;3.38;;;13.70;99.90;;;;;;5053939;28;20414;-74
2021/08/07 00:37:32;;;;;;;5.97;3.47;;;13.70;99.90;;;;;;5072139;28;20419;-74
2021/08/07 00:39:58;;;;;;;7.40;3.50;;;13.60;99.90;;;;;;5072015;28;20021;-74
2021/08/07 00:42:24;;;;;;;5.78;3.53;;;13.60;99.90;;;;;;5073865;28;20381;-74
2021/08/07 00:44:49;;;;;;;6.85;3.10;;;13.50;99.90;;;;;;5075770;28;20025;-74
2021/08/07 00:47:15;;;;;;;5.45;3.53;;;13.50;99.90;;;;;;5075323;28;20052;-74
2021/08/07 00:49:42;;;;;;;6.55;3.60;;;13.50;99.90;;;;;;5075312;28;20338;-74
2021/08/07 00:52:08;;;;;;;6.25;3.53;;;13.50;99.90;;;;;;5075444;28;20020;-74
2021/08/07 00:54:35;;;;;;;8.50;3.35;;;13.60;99.90;;;;;;5075431;28;20461;-74
2021/08/07 00:57:00;;;;;;;9.13;3.83;;;13.50;99.90;;;;;;5075182;28;20025;-74
2021/08/07 00:59:26;;;;;;;6.43;3.40;;;13.50;99.90;;;;;;5074986;28;20029;-74
2021/08/07 01:01:55;;;;;;;7.60;3.50;;;13.50;99.90;;;;;;5075427;28;20460;-74
2021/08/07 01:04:25;;;;;;;4.32;3.40;;;13.50;99.90;;;;;;5075105;28;20020;-74
2021/08/07 01:07:16;;;;;;;14.18;3.97;;;13.50;99.90;;;;;;5075451;28;20369;-75
2021/08/07 01:10:06;;;;;;;10.10;3.92;;;13.50;99.90;;;;;;5075164;28;20028;-75
2021/08/07 01:12:41;;;;;;;6.72;3.70;;;13.50;99.90;;;;;;5056875;28;20082;-74
2021/08/07 01:15:08;;;;;;;;;;;13.50;99.90;;;;;;5057053;28;20496;-74
2021/08/07 01:17:36;;;;;;;7.35;4.03;;;13.50;99.90;;;;;;5075262;28;19904;-74
2021/08/07 01:20:18;;;;;;;6.90;3.45;;;13.50;99.90;;;;;;5074839;28;20032;-74
2021/08/07 01:23:21;;;;;;;9.57;3.75;;;13.50;99.90;;;;;;5075181;28;20078;-74
2021/08/07 01:26:07;;;;;;;7.32;3.50;;;13.50;99.90;;;;;;5063504;28;20116;-74
2021/08/07 01:28:37;;;;;;;3.88;3.28;;;13.50;99.90;;;;;;5074846;28;20355;-75
2021/08/07 01:31:05;;;;;;;7.25;3.20;;;13.60;99.90;;;;;;5054598;28;20039;-78
2021/08/07 01:33:32;;;;;;;7.43;3.28;;;13.60;99.90;;;;;;5067741;28;20025;-78
2021/08/07 01:35:58;;;;;;;5.38;3.42;;;13.60;99.90;;;;;;5030243;28;20033;-78
2021/08/07 01:38:24;;;;;;;5.13;3.15;;;13.60;99.90;;;;;;5060835;28;20108;-78
2021/08/07 01:40:49;;;;;;;4.68;3.08;;;13.70;99.90;;;;;;5067536;28;20554;-78
2021/08/07 01:43:15;;;;;;;8.75;3.40;;;13.70;99.90;;;;;;5067518;28;20558;-78
2021/08/07 01:45:43;;;;;;;7.10;3.45;;;13.70;99.90;;;;;;5067140;28;20082;-78
2021/08/07 01:48:22;;;;;;;8.23;3.60;;;13.70;99.90;;;;;;5049484;28;20529;-78
2021/08/07 01:50:52;;;;;;;10.02;3.70;;;13.70;99.90;;;;;;5067461;28;20103;-78
2021/08/07 01:53:23;;;;;;;5.93;2.75;;;13.70;99.90;;;;;;5067205;28;20052;-78
2021/08/07 01:56:09;;;;;;;8.65;2.97;;;13.70;99.90;;;;;;5066782;28;20345;-78
2021/08/07 01:59:06;;;;;;;5.43;3.42;;;13.70;99.90;;;;;;5067276;28;20753;-78
2021/08/07 02:01:33;;;;;;;5.43;3.38;;;13.60;99.90;;;;;;5039289;28;20683;-78
2021/08/07 02:04:00;;;;;;;7.15;3.47;;;13.60;99.90;;;;;;5067656;28;20058;-78
2021/08/07 02:06:26;;;;;;;6.82;3.58;;;13.50;99.90;;;;;;5066815;28;20040;-78
2021/08/07 02:08:53;;;;;;;12.60;3.72;;;13.50;99.90;;;;;;5066785;28;20028;-78
2021/08/07 02:11:19;;;;;;;5.68;2.85;;;13.40;99.90;;;;;;5066928;28;20036;-78
2021/08/07 02:13:46;;;;;;;6.60;3.67;;;13.40;99.90;;;;;;5066961;28;20107;-78
2021/08/07 02:16:13;;;;;;;5.65;3.67;;;13.40;99.90;;;;;;5066627;28;20511;-78
2021/08/07 02:18:41;;;;;;;5.13;3.55;;;13.40;99.90;;;;;;5067030;28;20041;-78
2021/08/07 02:21:07;;;;;;;5.80;3.15;;;13.40;99.90;;;;;;5066691;28;20495;-78
2021/08/07 02:23:33;;;;;;;6.45;3.45;;;13.30;99.90;;;;;;5066973;28;20020;-78
2021/08/07 02:26:03;;;;;;;7.07;3.67;;;13.30;99.90;;;;;;5066635;28;20115;-78
2021/08/07 02:28:30;;;;;;;8.50;3.78;;;13.30;99.90;;;;;;5066353;28;20115;-78
2021/08/07 02:31:00;;;;;;;6.88;4.05;;;13.30;99.90;;;;;;5066770;28;20370;-78
2021/08/07 02:33:27;;;;;;;5.22;3.65;;;13.30;99.90;;;;;;5066319;28;20047;-78
2021/08/07 02:35:55;;;;;;;4.97;3.08;;;13.40;99.90;;;;;;5048810;28;20102;-78
2021/08/07 02:38:22;;;;;;;6.63;3.40;;;13.40;99.90;;;;;;5066327;28;20025;-78
2021/08/07 02:40:48;;;;;;;6.05;3.20;;;13.40;99.90;;;;;;5066336;28;20136;-78
2021/08/07 02:43:18;;;;;;;5.60;3.55;;;13.40;99.90;;;;;;5066283;28;20025;-78
2021/08/07 02:45:44;;;;;;;5.38;3.42;;;13.30;99.90;;;;;;5066344;28;20048;-78
2021/08/07 02:48:10;;;;;;;6.32;3.38;;;13.30;99.90;;;;;;5066112;28;20028;-78
2021/08/07 02:50:37;;;;;;;7.03;3.33;;;13.30;99.90;;;;;;5066354;28;20035;-78
2021/08/07 02:53:03;;;;;;;8.45;4.20;;;13.30;99.90;;;;;;5066180;28;20028;-78
2021/08/07 02:55:29;;;;;;;6.18;3.97;;;13.30;99.90;;;;;;5066371;28;20039;-78
2021/08/07 02:57:56;;;;;;;7.43;4.18;;;13.30;99.90;;;;;;5048060;28;20024;-78
2021/08/07 03:00:21;;;;;;;5.97;3.90;;;13.30;99.90;;;;;;5048053;28;20032;-78
2021/08/07 03:02:47;;;;;;;6.95;3.63;;;13.30;99.90;;;;;;5066497;28;20168;-78
2021/08/07 03:05:13;;;;;;;7.30;3.45;;;13.30;99.90;;;;;;5065767;28;20129;-78
2021/08/07 03:07:39;;;;;;;6.75;3.47;;;13.30;99.90;;;;;;5066073;28;20493;-78
2021/08/07 03:10:06;;;;;;;10.00;3.42;;;13.30;99.90;;;;;;5065406;28;20060;-78
2021/08/07 03:12:33;;;;;;;7.05;3.63;;;13.30;99.90;;;;;;5048192;28;20039;-78
2021/08/07 03:14:59;;;;;;;6.95;3.65;;;13.30;99.90;;;;;;5066362;28;20056;-78
2021/08/07 03:17:24;;;;;;;7.50;3.50;;;13.20;99.90;;;;;;5065730;28;20036;-79
2021/08/07 03:19:50;;;;;;;7.55;3.65;;;13.20;99.90;;;;;;5066065;28;20036;-78
2021/08/07 03:22:17;;;;;;;8.70;3.90;;;13.20;99.90;;;;;;5066152;28;20055;-78
2021/08/07 03:24:46;;;;;;;6.13;3.47;;;13.20;99.90;;;;;;5066106;28;20878;-78
2021/08/07 03:27:12;;;;;;;6.20;3.15;;;13.20;99.90;;;;;;5066224;28;20424;-79
2021/08/07 03:29:38;;;;;;;7.03;4.05;;;13.20;99.90;;;;;;5065724;28;20036;-78
2021/08/07 03:32:03;;;;;;;11.25;3.85;;;13.20;99.90;;;;;;5065646;28;20503;-79
2021/08/07 03:34:29;;;;;;;5.90;3.70;;;13.20;99.90;;;;;;5047850;28;20030;-79
2021/08/07 03:36:55;;;;;;;8.75;3.78;;;13.20;99.90;;;;;;5066151;28;20043;-79
2021/08/07 03:39:20;;;;;;;6.78;4.40;;;13.20;99.90;;;;;;5065839;28;20125;-79
2021/08/07 03:41:47;;;;;;;7.15;3.90;;;13.20;99.90;;;;;;5065691;28;20042;-79
2021/08/07 03:44:13;;;;;;;5.22;3.53;;;13.20;99.90;;;;;;5066182;28;20025;-79
2021/08/07 03:46:39;;;;;;;6.25;3.53;;;13.20;99.90;;;;;;5065718;28;20100;-78
2021/08/07 03:49:04;;;;;;;7.78;3.75;;;13.20;99.90;;;;;;5065571;28;20200;-79
2021/08/07 03:51:30;;;;;;;9.70;3.50;;;13.30;99.90;;;;;;5065791;28;20066;-78
2021/08/07 03:53:56;;;;;;;9.98;4.10;;;13.30;99.90;;;;;;5065597;28;20036;-79
2021/08/07 03:56:21;;;;;;;7.70;3.95;;;13.40;99.90;;;;;;5065570;28;20545;-78
2021/08/07 03:58:47;;;;;;;6.63;3.53;;;13.40;99.90;;;;;;5065830;28;20426;-78
2021/08/07 04:01:13;;;;;;;5.40;3.85;;;13.40;99.90;;;;;;5065414;28;20037;-79
2021/08/07 04:03:39;;;;;;;8.50;4.03;;;13.50;99.90;;;;;;5065776;28;20468;-78
2021/08/07 04:06:04;;;;;;;9.48;4.28;;;13.50;99.90;;;;;;5065670;28;20184;-78
2021/08/07 04:08:30;;;;;;;7.13;4.03;;;13.50;99.90;;;;;;5065157;28;20040;-79
2021/08/07 04:10:55;;;;;;;8.20;4.03;;;13.50;99.90;;;;;;5046566;28;20094;-78
2021/08/07 04:13:21;;;;;;;8.50;3.58;;;13.60;99.90;;;;;;5064832;28;20094;-78
2021/08/07 04:15:46;;;;;;;8.50;3.78;;;13.60;99.90;;;;;;5064957;28;20804;-79
2021/08/07 04:18:12;;;;;;;6.00;3.42;;;13.60;99.90;;;;;;5068351;28;20146;-79
2021/08/07 04:20:38;;;;;;;4.70;3.30;;;13.60;99.90;;;;;;5069164;28;20032;-78
2021/08/07 04:23:05;;;;;;;5.82;3.35;;;13.60;99.90;;;;;;5047224;28;20025;-79
2021/08/07 04:25:31;;;;;;;5.93;3.85;;;13.60;99.90;;;;;;5068572;28;20032;-78
2021/08/07 04:27:56;;;;;;;6.60;3.60;;;13.60;99.90;;;;;;5065795;28;20028;-78
2021/08/07 04:30:22;;;;;;;4.45;3.45;;;13.60;99.90;;;;;;5068210;28;20029;-78
2021/08/07 04:32:48;;;;;;;7.65;3.33;;;13.60;99.90;;;;;;5068263;28;20033;-79
2021/08/07 04:35:13;;;;;;;5.68;3.53;;;13.60;99.90;;;;;;5067944;28;20035;-78
2021/08/07 04:37:51;;;;;;;7.75;3.60;;;13.70;99.90;;;;;;5068253;28;20026;-79
2021/08/07 04:40:17;;;;;;;5.32;4.10;;;13.70;99.90;;;;;;5050746;28;20028;-78
2021/08/07 04:42:43;;;;;;;8.90;4.00;;;13.70;99.90;;;;;;5068671;28;20024;-78
2021/08/07 04:45:09;;;;;;;8.90;3.50;;;13.70;99.90;;;;;;5068812;28;20028;-79
2021/08/07 04:47:34;;;;;;;7.35;3.75;;;13.70;99.90;;;;;;5069012;28;20422;-78
2021/08/07 04:50:00;;;;;;;5.50;3.80;;;13.80;99.90;;;;;;5073739;28;20028;-74
2021/08/07 04:52:26;;;;;;;8.65;3.90;;;13.80;99.90;;;;;;5075538;28;20031;-74
2021/08/07 04:54:52;;;;;;;7.75;3.60;;;13.90;99.90;;;;;;5075485;28;20052;-74
2021/08/07 04:57:17;;;;;;;10.68;4.75;;;13.90;99.90;;;;;;5075464;28;20028;-74
2021/08/07 04:59:43;;;;;;;8.02;3.70;;;14.00;99.90;;;;;;5075278;28;20314;-74
2021/08/07 05:02:08;;;;;;;7.72;4.20;;;14.00;99.90;;;;;;5075380;28;20028;-74
2021/08/07 05:04:34;;;;;;;6.90;3.60;;;14.10;99.90;;;;;;5075434;28;20028;-74
2021/08/07 05:06:59;;;;;;;6.20;4.38;;;14.10;99.90;;;;;;5075221;28;20024;-74
2021/08/07 05:09:25;;;;;;;8.45;4.07;;;14.10;99.90;;;;;;5057080;28;20032;-74
2021/08/07 05:11:50;;;;;;;7.35;4.55;;;14.10;99.90;;;;;;5074916;28;20113;-74
2021/08/07 05:14:16;;;;;;;7.32;4.10;;;14.10;99.90;;;;;;5075544;28;20055;-74
2021/08/07 05:16:42;;;;;;;6.43;4.00;;;14.20;99.90;;;;;;5075240;28;20060;-74
2021/08/07 05:19:07;;;;;;;8.35;4.22;;;14.30;99.90;;;;;;5057026;28;20020;-74
2021/08/07 05:21:33;;;;;;;11.95;3.83;;;14.30;99.90;;;;;;5075100;28;20116;-74
2021/08/07 05:23:58;;;;;;;7.05;4.03;;;14.40;99.90;;;;;;5075355;28;20052;-74
2021/08/07 05:26:24;;;;;;;10.80;4.07;;;14.40;99.90;;;;;;5075475;28;20024;-74
2021/08/07 05:28:50;;;;;;;9.23;4.40;;;14.50;99.90;;;;;;5056498;28;20024;-74
2021/08/07 05:31:16;;;;;;;11.23;4.55;;;14.60;99.90;;;;;;5075294;28;20028;-74
2021/08/07 05:33:41;;;;;;;6.80;4.10;;;14.60;99.90;;;;;;5056834;28;20112;-74
2021/08/07 05:36:07;;;;;;;5.32;3.50;;;14.70;99.90;;;;;;5074874;28;20473;-74
2021/08/07 05:38:32;;;;;;;7.88;4.50;;;14.80;99.90;;;;;;5074960;28;20392;-74
2021/08/07 05:40:58;;;;;;;11.93;4.00;;;14.80;99.90;;;;;;5075393;28;20031;-74
2021/08/07 05:43:23;;;;;;;7.03;3.72;;;14.80;99.90;;;;;;5074833;28;20036;-74
2021/08/07 05:45:49;;;;;;;13.02;4.78;;;14.90;99.90;;;;;;5074938;28;20025;-74
2021/08/07 05:48:18;;;;;;;12.00;5.00;;;14.80;99.90;;;;;;5056889;28;20028;-74
2021/08/07 05:50:43;;;;;;;8.45;4.15;;;14.90;99.90;;;;;;5074736;28;20013;-74
2021/08/07 05:53:09;;;;;;;8.48;4.22;;;14.90;99.90;;;;;;5074812;28;20491;-73
2021/08/07 05:55:35;;;;;;;9.52;4.57;;;14.90;99.90;;;;;;5072499;28;20029;-74
2021/08/07 05:58:03;;;;;;;8.40;4.20;;;14.90;99.90;;;;;;5074364;28;20020;-74
2021/08/07 06:00:28;;;;;;;7.40;3.95;;;15.00;99.90;;;;;;5073979;28;20039;-74
2021/08/07 06:02:54;;;;;;;7.75;4.32;;;15.10;99.90;;;;;;5072281;28;20111;-78
2021/08/07 06:05:20;;;;;;;6.68;4.60;;;15.20;99.90;;;;;;5073576;28;20032;-73
2021/08/07 06:07:45;;;;;;;6.72;4.45;;;15.30;99.90;;;;;;5074138;28;20024;-73
2021/08/07 06:10:11;;;;;;;7.55;4.60;;;15.40;99.90;;;;;;5084981;28;20053;-73
2021/08/07 06:12:36;;;;;;;10.73;4.95;;;15.60;99.90;;;;;;5091003;28;20027;-73
2021/08/07 06:15:03;;;;;;;8.73;4.22;;;15.70;99.90;;;;;;5065062;28;20057;-79
2021/08/07 06:17:29;;;;;;;7.45;4.28;;;15.80;99.90;;;;;;5064835;28;20481;-79
2021/08/07 06:19:54;;;;;;;6.53;4.10;;;15.90;99.90;;;;;;5067143;28;20080;-79
2021/08/07 06:22:20;;;;;;;6.80;4.10;;;16.00;99.90;;;;;;5065522;28;20116;-74
2021/08/07 06:24:45;;;;;;;11.48;4.55;;;16.10;99.90;;;;;;5073809;28;20029;-74
2021/08/07 06:27:13;;;;;;;8.95;5.05;;;16.30;99.90;;;;;;5073821;28;20021;-73
2021/08/07 06:29:39;;;;;;;8.88;4.10;;;16.50;99.90;;;;;;5068226;28;20063;-78
2021/08/07 06:32:05;;;;;;;8.90;4.35;;;16.70;99.90;;;;;;5066914;28;20563;-79
2021/08/07 06:34:31;;;;;;;8.85;4.63;;;16.90;99.90;;;;;;5067680;28;20024;-79
2021/08/07 06:36:56;;;;;;;4.05;3.40;;;17.00;99.90;;;;;;5066891;28;20081;-79
2021/08/07 06:39:22;;;;;;;6.57;3.75;;;17.20;99.90;;;;;;5047889;28;20042;-79
2021/08/07 06:41:48;;;;;;;10.23;3.83;;;17.40;99.90;;;;;;5066716;28;20021;-79
2021/08/07 06:44:13;;;;;;;7.68;3.33;;;17.50;99.90;;;;;;5067064;28;20032;-79
2021/08/07 06:46:39;;;;;;;8.20;3.30;;;17.60;99.90;;;;;;5067065;28;20030;-79
2021/08/07 06:49:04;;;;;;;7.13;3.42;;;17.80;99.90;;;;;;5066806;28;20029;-79
2021/08/07 06:51:30;;;;;;;6.30;3.47;;;17.90;99.90;;;;;;5067328;28;20040;-79
2021/08/07 06:53:55;;;;;;;5.80;3.28;;;17.90;99.90;;;;;;5067063;28;20028;-79
2021/08/07 06:56:21;;;;;;;13.15;3.40;;;17.90;99.90;;;;;;5066406;28;20036;-79
2021/08/07 06:58:46;;;;;;;10.93;5.10;;;18.00;99.90;;;;;;5066745;28;20081;-79
2021/08/07 07:01:12;;;;;;;6.15;3.45;;;18.10;99.90;;;;;;5048365;28;20390;-79
2021/08/07 07:03:37;;;;;;;8.73;3.47;;;18.10;99.90;;;;;;5066374;28;20820;-79
2021/08/07 07:06:05;;;;;;;6.28;3.35;;;18.20;99.90;;;;;;5066899;28;20036;-79
2021/08/07 07:08:30;;;;;;;6.68;3.10;;;18.30;99.90;;;;;;5066828;28;20113;-79
2021/08/07 07:10:56;;;;;;;6.25;3.20;;;18.40;99.90;;;;;;5066073;28;20024;-79
2021/08/07 07:13:21;;;;;;;9.35;3.22;;;18.40;99.90;;;;;;5066523;28;20028;-79
2021/08/07 07:15:47;;;;;;;7.18;2.85;;;18.50;99.90;;;;;;5066330;28;20059;-77
2021/08/07 07:18:12;;;;;;;3.97;2.70;;;18.50;99.90;;;;;;5066745;28;20036;-76
2021/08/07 07:20:38;;;;;;;5.00;2.90;;;18.50;99.90;;;;;;5066705;28;20032;-76
2021/08/07 07:23:04;;;;;;;6.50;2.80;;;18.60;99.90;;;;;;5047947;28;20016;-76
2021/08/07 07:25:29;;;;;;;7.85;2.90;;;18.70;99.90;;;;;;5066343;28;20024;-76
2021/08/07 07:27:55;;;;;;;6.50;2.80;;;18.80;99.90;;;;;;5065926;28;20028;-76
2021/08/07 07:30:20;;;;;;;3.85;2.70;;;18.90;99.90;;;;;;5048033;28;20028;-76
2021/08/07 07:32:46;;;;;;;4.63;2.80;;;19.10;99.90;;;;;;5066080;28;20591;-77
2021/08/07 07:35:11;;;;;;;5.57;2.83;;;19.20;99.90;;;;;;5066155;28;20054;-76
2021/08/07 07:37:37;;;;;;;5.35;2.53;;;19.30;99.90;;;;;;5066404;28;20016;-77
2021/08/07 07:40:05;;;;;;;5.50;2.60;;;19.40;99.90;;;;;;5065853;28;20032;-77
2021/08/07 07:42:30;;;;;;;6.72;2.67;;;19.60;99.90;;;;;;5066238;28;20024;-77
2021/08/07 07:44:56;;;;;;;6.05;2.88;;;19.70;99.90;;;;;;5066149;28;20021;-76
2021/08/07 07:47:22;;;;;;;9.82;3.20;;;19.80;99.90;;;;;;5066195;28;20362;-76
2021/08/07 07:49:47;;;;;;;5.55;2.83;;;19.80;99.90;;;;;;5066156;28;20025;-76
2021/08/07 07:52:13;;;;;;;5.63;2.65;;;19.80;99.90;;;;;;5069033;28;20487;-79
2021/08/07 07:54:38;;;;;;;6.30;2.60;;;19.90;99.90;;;;;;5070284;28;20032;-79
2021/08/07 07:57:04;;;;;;;5.88;2.35;;;20.10;99.90;;;;;;5070105;28;20029;-79
2021/08/07 07:59:30;;;;;;;8.18;2.75;;;20.30;99.90;;;;;;5069590;28;20028;-79
2021/08/07 08:01:56;;;;;;;2.88;2.00;;;20.40;99.90;;;;;;5069519;28;20090;-79
2021/08/07 08:04:22;;;;;;;5.88;2.30;;;20.70;99.90;;;;;;5051804;28;20032;-79
2021/08/07 08:06:47;;;;;;;7.45;2.67;;;20.80;99.90;;;;;;5069918;28;20054;-79
2021/08/07 08:09:13;;;;;;;5.05;2.20;;;21.00;99.90;;;;;;5069806;28;20099;-79
2021/08/07 08:11:38;;;;;;;6.82;2.40;;;21.00;99.90;;;;;;5070255;28;20468;-79
2021/08/07 08:14:04;;;;;;;5.05;2.20;;;21.20;99.90;;;;;;5070573;28;20741;-79
2021/08/07 08:16:31;;;;;;;3.53;2.00;;;21.30;99.90;;;;;;5068690;28;20417;-79
2021/08/07 08:18:56;;;;;;;4.65;2.20;;;21.50;99.90;;;;;;5069755;28;20151;-79
2021/08/07 08:21:22;;;;;;;5.07;2.17;;;21.60;99.90;;;;;;5069035;28;20492;-79
2021/08/07 08:23:47;;;;;;;5.47;2.17;;;21.70;99.90;;;;;;5069405;28;20092;-79
2021/08/07 08:26:13;;;;;;;5.20;2.30;;;21.90;99.90;;;;;;5069742;28;20016;-79
2021/08/07 08:28:39;;;;;;;4.85;2.28;;;22.00;99.90;;;;;;5068813;28;20028;-79
2021/08/07 08:31:07;;;;;;;4.15;2.03;;;22.00;99.90;;;;;;5069407;28;20091;-79
2021/08/07 08:33:32;;;;;;;5.28;1.98;;;22.20;99.90;;;;;;5051282;28;20110;-79
2021/08/07 08:35:58;;;;;;;5.47;2.30;;;22.40;99.90;;;;;;5069498;28;20066;-79
2021/08/07 08:38:24;;;;;;;5.60;2.00;;;22.60;99.90;;;;;;5069138;28;20621;-79
2021/08/07 08:40:49;;;;;;;5.90;2.05;;;22.80;99.90;;;;;;5069251;28;20032;-79
2021/08/07 08:43:16;;;;;;;4.13;1.90;;;22.90;99.90;;;;;;5069186;28;20113;-79
2021/08/07 08:45:44;;;;;;;3.20;1.60;;;23.00;99.90;;;;;;5069272;28;20024;-79
2021/08/07 08:48:11;;;;;;;3.70;1.92;;;23.30;99.90;;;;;;5069432;28;20016;-79
2021/08/07 08:50:36;;;;;;;5.40;1.80;;;23.40;99.90;;;;;;5068983;28;20417;-79
2021/08/07 08:53:03;;;;;;;4.95;1.85;;;23.30;99.90;;;;;;5069443;28;20036;-79
2021/08/07 08:55:29;;;;;;;2.53;1.60;;;23.40;99.90;;;;;;5069247;28;20469;-79
2021/08/07 08:57:55;;;;;;;5.47;2.00;;;23.70;99.90;;;;;;5069499;28;20039;-79
2021/08/07 09:00:21;;;;;;;5.00;1.95;;;23.60;99.90;;;;;;5068498;28;20418;-79
2021/08/07 09:02:47;;;;;;;5.68;1.77;;;23.60;99.90;;;;;;5068319;28;20039;-79
2021/08/07 09:05:14;;;;;;;4.50;2.38;;;23.70;99.90;;;;;;5051204;28;20115;-79
2021/08/07 09:07:41;;;;;;;4.18;1.88;;;23.50;99.90;;;;;;5069091;28;20095;-79
2021/08/07 09:10:07;;;;;;;4.40;2.58;;;23.50;99.90;;;;;;5069435;28;20056;-79
2021/08/07 09:12:44;;;;;;;4.50;2.25;;;23.50;99.90;;;;;;5068796;28;20028;-79
2021/08/07 09:15:30;;;;;;;2.88;1.80;;;23.70;99.90;;;;;;5069407;28;20139;-79
2021/08/07 09:18:11;;;;;;;4.15;1.80;;;23.80;99.90;;;;;;5068899;28;20111;-79
2021/08/07 09:20:42;;;;;;;4.93;1.80;;;24.00;99.90;;;;;;5068506;28;20035;-79
2021/08/07 09:23:08;;;;;;;6.05;2.10;;;24.10;99.90;;;;;;5068591;28;20024;-79
2021/08/07 09:25:39;;;;;;;4.03;2.03;;;24.20;99.90;;;;;;5051031;28;20016;-79
2021/08/07 09:28:05;;;;;;;6.43;2.17;;;24.30;99.90;;;;;;5068807;28;20024;-79
2021/08/07 09:30:34;;;;;;;3.95;1.90;;;24.40;99.90;;;;;;5068911;28;20137;-80
2021/08/07 09:33:03;;;;;;;4.88;1.83;;;24.50;99.90;;;;;;5068412;28;20025;-79
2021/08/07 09:35:33;;;;;;;3.45;1.60;;;24.50;99.90;;;;;;5068835;28;20422;-79
2021/08/07 09:38:06;;;;;;;2.80;1.70;;;24.40;99.90;;;;;;5069097;28;20802;-79
2021/08/07 09:40:46;;;;;;;3.15;1.80;;;24.40;99.90;;;;;;5050539;28;20096;-79
2021/08/07 09:43:15;;;;;;;3.30;1.80;;;24.40;99.90;;;;;;5068314;28;20031;-79
2021/08/07 09:45:41;;;;;;;3.58;1.85;;;24.40;99.90;;;;;;5068320;28;20024;-79
2021/08/07 09:48:10;;;;;;;5.47;2.33;;;24.40;99.90;;;;;;5068649;28;20024;-79
2021/08/07 09:50:37;;;;;;;3.45;1.88;;;24.30;99.90;;;;;;5068366;28;20059;-79
2021/08/07 09:53:04;;;;;;;4.25;1.83;;;24.10;99.90;;;;;;5068845;28;20089;-79
2021/08/07 09:55:31;;;;;;;4.10;1.80;;;24.10;99.90;;;;;;5068221;28;20043;-79
2021/08/07 09:58:14;;;;;;;3.45;1.85;;;24.00;99.90;;;;;;5067347;28;20028;-79
2021/08/07 10:00:42;;;;;;;4.07;1.73;;;23.80;99.90;;;;;;5064721;28;20032;-79
2021/08/07 10:03:17;;;;;;;5.57;2.00;;;23.70;99.90;;;;;;5065410;28;20063;-79
2021/08/07 10:05:44;;;;;;;5.05;2.13;;;23.70;99.90;;;;;;5045931;28;20810;-79
2021/08/07 10:08:11;;;;;;;4.00;2.30;;;23.70;99.90;;;;;;5064527;28;20449;-78
2021/08/07 10:10:37;;;;;;;5.10;1.83;;;23.80;99.90;;;;;;5064103;28;20500;-79
2021/08/07 10:13:03;;;;;;;4.05;1.85;;;23.70;99.90;;;;;;5064370;28;20024;-79
2021/08/07 10:15:30;;;;;;;3.15;1.80;;;23.60;99.90;;;;;;5064403;28;20044;-79
2021/08/07 10:17:56;;;;;;;4.32;1.80;;;23.70;99.90;;;;;;5064280;28;20059;-78
2021/08/07 10:20:22;;;;;;;3.67;1.83;;;23.70;99.90;;;;;;5064228;28;20040;-79
2021/08/07 10:22:49;;;;;;;5.90;2.15;;;23.80;99.90;;;;;;5046054;28;20081;-79
2021/08/07 10:25:15;;;;;;;4.22;1.90;;;23.70;99.90;;;;;;5064346;28;20021;-78
2021/08/07 10:27:43;;;;;;;2.50;1.80;;;23.60;99.90;;;;;;5063522;28;20027;-79
2021/08/07 10:30:11;;;;;;;9.82;7.55;;;23.60;99.90;;;;;;5064627;28;20052;-79
2021/08/07 10:32:43;;;;;;;4.85;2.65;;;23.70;99.90;;;;;;5064988;28;20025;-79
2021/08/07 10:35:12;;;;;;;3.90;2.22;;;23.70;99.90;;;;;;5064920;28;20836;-79
2021/08/07 10:37:39;;;;;;;3.95;1.80;;;23.70;99.90;;;;;;5065591;28;20507;-79
2021/08/07 10:40:07;;;;;;;3.70;1.98;;;23.60;99.90;;;;;;5046461;28;20037;-79
2021/08/07 10:42:34;;;;;;;5.22;2.00;;;23.70;99.90;;;;;;5065054;28;20721;-79
2021/08/07 10:45:03;;;;;;;3.58;1.67;;;23.80;99.90;;;;;;5065289;28;20075;-79
2021/08/07 10:47:35;;;;;;;3.50;1.80;;;24.00;99.90;;;;;;5065270;28;20024;-79
2021/08/07 10:50:20;;;;;;;3.45;1.65;;;24.30;99.90;;;;;;5064840;28;20086;-79
2021/08/07 10:52:46;;;;;;;3.35;1.88;;;24.50;99.90;;;;;;5046313;28;20047;-80
2021/08/07 10:55:50;;;;;;;3.17;2.17;;;24.70;99.90;;;;;;5064953;28;20028;-79
2021/08/07 10:58:44;;;;;;;3.72;1.88;;;25.00;99.90;;;;;;5046036;28;20480;-79
2021/08/07 11:01:25;;;;;;;2.97;1.85;;;25.10;99.90;;;;;;5033194;28;20552;-79
2021/08/07 11:04:02;;;;;;;3.05;2.08;;;25.40;99.90;;;;;;5064920;28;20469;-78
2021/08/07 11:06:43;;;;;;;4.35;1.80;;;25.40;99.90;;;;;;5048501;28;20024;-78
2021/08/07 11:09:30;;;;;;;6.68;5.38;;;25.50;99.90;;;;;;5066871;28;20028;-78
2021/08/07 11:12:10;;;;;;;5.57;4.90;;;25.50;99.90;;;;;;5067014;28;20032;-79
2021/08/07 11:14:53;;;;;;;2.67;1.90;;;25.50;99.90;;;;;;5067446;28;20433;-78
2021/08/07 11:17:18;;;;;;;3.03;1.67;;;25.30;99.90;;;;;;5072780;28;20313;-74
2021/08/07 11:19:49;;;;;;;1.90;1.60;;;25.10;99.90;;;;;;5072875;28;20035;-74
2021/08/07 11:22:40;;;;;;;2.72;1.88;;;25.10;99.90;;;;;;5072749;28;20109;-74
2021/08/07 11:25:17;;;;;;;2.85;1.90;;;25.10;99.90;;;;;;5072495;28;20107;-74
2021/08/07 11:27:46;;;;;;;5.15;2.22;;;25.00;99.90;;;;;;5073108;28;20096;-74
2021/08/07 11:30:33;;;;;;;4.80;1.95;;;25.30;99.90;;;;;;5072937;28;20031;-74
2021/08/07 11:32:59;;;;;;;3.13;1.77;;;25.50;99.90;;;;;;5072083;28;20052;-74
2021/08/07 11:35:30;;;;;;;4.78;2.13;;;25.70;99.90;;;;;;5072778;28;20573;-74
2021/08/07 11:38:23;;;;;;;2.63;1.70;;;26.20;99.90;;;;;;5072832;28;20064;-74
2021/08/07 11:41:00;;;;;;;4.22;1.77;;;26.30;99.90;;;;;;5072810;28;20033;-75
2021/08/07 11:43:32;;;;;;;3.28;1.60;;;26.40;99.90;;;;;;5072470;28;20052;-75
2021/08/07 11:45:59;;;;;;;2.47;1.40;;;26.40;99.90;;;;;;5072552;28;20134;-74
2021/08/07 11:48:34;;;;;;;5.95;1.90;;;26.60;99.90;;;;;;5071408;28;20020;-78
2021/08/07 11:51:10;;;;;;;5.03;2.03;;;27.00;99.90;;;;;;5066212;28;20035;-79
2021/08/07 11:53:41;;;;;;;5.47;2.15;;;27.40;99.90;;;;;;5065815;28;20039;-79
2021/08/07 11:56:12;;;;;;;5.20;2.13;;;27.30;99.90;;;;;;5047470;28;20028;-79
2021/08/07 11:58:50;;;;;;;3.22;2.13;;;27.40;99.90;;;;;;5065576;28;20381;-79
2021/08/07 12:01:18;;;;;;;5.00;2.15;;;27.50;99.90;;;;;;5065745;28;20089;-79
2021/08/07 12:03:49;;;;;;;2.85;1.70;;;27.40;99.90;;;;;;5065610;28;20025;-79
2021/08/07 12:06:16;;;;;;;4.22;2.10;;;27.40;99.90;;;;;;5065867;28;20055;-79
2021/08/07 12:08:42;;;;;;;3.85;2.03;;;27.60;99.90;;;;;;5066308;28;20033;-79
2021/08/07 12:11:11;;;;;;;2.50;1.75;;;27.50;99.90;;;;;;5065517;28;20034;-79
2021/08/07 12:13:39;;;;;;;3.67;1.80;;;27.40;99.90;;;;;;5065530;28;20733;-79
2021/08/07 12:16:16;;;;;;;2.65;1.75;;;27.40;99.90;;;;;;5065637;28;20049;-79
2021/08/07 12:18:44;;;;;;;3.80;1.85;;;27.50;99.90;;;;;;5065386;28;20123;-79
2021/08/07 12:21:18;;;;;;;3.92;1.77;;;27.40;99.90;;;;;;5047243;28;20025;-79
2021/08/07 12:23:47;;;;;;;2.57;1.70;;;27.60;99.90;;;;;;5047465;28;20044;-80
2021/08/07 12:26:14;;;;;;;3.85;2.20;;;27.50;99.90;;;;;;5065481;28;20037;-80
2021/08/07 12:28:41;;;;;;;3.17;2.03;;;27.60;99.90;;;;;;5065775;28;20099;-80
2021/08/07 12:31:06;;;;;;;3.75;2.00;;;27.40;99.90;;;;;;5065768;28;20032;-80
2021/08/07 12:33:37;;;;;;;3.85;1.88;;;27.40;99.90;;;;;;5047348;28;20023;-79
2021/08/07 12:36:29;;;;;;;2.75;1.70;;;27.40;99.90;;;;;;5067146;28;20032;-75
2021/08/07 12:38:54;;;;;;;3.63;2.30;;;27.40;99.90;;;;;;5071043;28;20037;-75
2021/08/07 12:41:22;;;;;;;2.85;1.58;;;27.60;99.90;;;;;;5075637;28;20082;-75
2021/08/07 12:43:49;;;;;;;3.08;1.90;;;27.30;99.90;;;;;;5075862;28;20469;-75
2021/08/07 12:46:19;;;;;;;3.13;2.10;;;27.40;99.90;;;;;;5058312;28;20376;-75
2021/08/07 12:48:59;;;;;;;3.53;1.73;;;27.70;99.90;;;;;;5075562;28;20032;-75
2021/08/07 12:51:31;;;;;;;3.03;1.83;;;27.70;99.90;;;;;;5057501;28;20115;-75